TJBQ/BQN METAR and TAF weather

Enter ICAO airport designator
Station Type Date Time Source
TJBQ METAR 2023/02/06 17:50 UTC NOAA

TJBQ 061750Z 07019G22KT 10SM CLR 28/20 A3006


Station Type Date Time Source
TJBQ Decoded METAR 2023/02/06 17:50 UTC NOAA

Aquadilla, Rafael Hernandez Airport, PR, United States (TJBQ) 18-30N 067-08W 69M
Feb 06, 2023 - 12:50 PM EST / 2023.02.06 1750 UTC
Wind: from the ENE (070 degrees) at 22 MPH (19 KT) gusting to 25 MPH (22 KT):0
Visibility: 10 mile(s):0
Sky conditions: clear
Temperature: 82 F (28 C)
Dew Point: 68 F (20 C)
Relative Humidity: 61%
Pressure (altimeter): 30.06 in. Hg (1017 hPa)
ob: TJBQ 061750Z 07019G22KT 10SM CLR 28/20 A3006
cycle: 18

Station Type Date Time Source
TJBQ TAF 2023/02/06 18:22 UTC NOAA

TAF TJBQ 061720Z 0618/0718 07016G26KT P6SM VCSH FEW025 SCT050
FM062300 09009KT P6SM FEW025 FEW070
FM070200 11005KT P6SM SKC
FM071400 08017G25KT P6SM SCT030
AMD NOT SKED 0702/0711

Example: see airport list